Time;durP1;ratioP1;P1;durP2;ratioP2;P2;SDS_P1;SDS_P2;PMS_P1;PMS_P2;Temp;Humidity;BMP_temperature;BMP_pressure;BME280_temperature;BME280_humidity;BME280_pressure;Samples;Min_cycle;Max_cycle;Signal;HPM_P1;HPM_P2
2023/07/22 00:00:29;;;;;;;7.57;5.15;;;13.40;99.90;;;;;;4986983;28;20489;-79
2023/07/22 00:02:55;;;;;;;8.05;5.80;;;13.30;99.90;;;;;;4986532;28;20061;-78
2023/07/22 00:05:23;;;;;;;7.13;5.90;;;13.30;99.90;;;;;;4995047;28;20014;-78
2023/07/22 00:07:49;;;;;;;8.15;5.13;;;13.30;99.90;;;;;;4989522;28;20018;-78
2023/07/22 00:10:15;;;;;;;5.45;4.47;;;13.30;99.90;;;;;;5009704;28;20026;-79
2023/07/22 00:12:41;;;;;;;6.30;5.15;;;13.20;99.90;;;;;;4988506;28;20026;-78
2023/07/22 00:15:07;;;;;;;6.47;5.53;;;13.20;99.90;;;;;;4989047;28;20036;-78
2023/07/22 00:17:33;;;;;;;6.95;5.10;;;13.20;99.90;;;;;;5007104;28;20025;-78
2023/07/22 00:19:59;;;;;;;6.10;5.30;;;13.10;99.90;;;;;;5008118;28;20540;-79
2023/07/22 00:22:26;;;;;;;7.35;5.80;;;13.20;99.90;;;;;;4987966;28;20022;-78
2023/07/22 00:24:52;;;;;;;6.85;5.65;;;13.10;99.90;;;;;;5005130;28;20358;-79
2023/07/22 00:27:18;;;;;;;7.78;5.93;;;13.10;99.90;;;;;;5007914;28;20033;-78
2023/07/22 00:29:43;;;;;;;9.95;6.15;;;13.10;99.90;;;;;;4994282;28;20023;-77
2023/07/22 00:32:09;;;;;;;6.80;6.00;;;13.10;99.90;;;;;;4993595;28;20101;-77
2023/07/22 00:34:36;;;;;;;7.78;6.55;;;13.20;99.90;;;;;;5010238;28;20097;-78
2023/07/22 00:37:02;;;;;;;10.48;6.47;;;13.10;99.90;;;;;;4994216;28;20053;-78
2023/07/22 00:39:27;;;;;;;8.20;6.25;;;13.20;99.90;;;;;;4985759;28;20375;-78
2023/07/22 00:41:53;;;;;;;7.55;6.28;;;13.20;99.90;;;;;;5006346;28;20032;-78
2023/07/22 00:44:18;;;;;;;8.40;6.15;;;13.20;99.90;;;;;;4989558;28;20029;-80
2023/07/22 00:46:44;;;;;;;9.23;6.50;;;13.20;99.90;;;;;;5005931;28;20036;-79
2023/07/22 00:49:12;;;;;;;6.80;5.90;;;13.20;99.90;;;;;;4989617;28;20030;-79
2023/07/22 00:51:38;;;;;;;8.55;6.15;;;13.20;99.90;;;;;;4987898;28;20030;-78
2023/07/22 00:54:04;;;;;;;11.05;6.53;;;13.20;99.90;;;;;;5006171;28;20033;-79
2023/07/22 00:56:35;;;;;;;9.88;6.57;;;13.20;99.90;;;;;;4980734;28;20061;-79
2023/07/22 00:59:02;;;;;;;8.75;6.25;;;13.10;99.90;;;;;;5003598;28;20037;-78
2023/07/22 01:01:27;;;;;;;12.25;6.63;;;13.20;99.90;;;;;;4984659;28;20034;-78
2023/07/22 01:03:53;;;;;;;9.25;7.13;;;13.20;99.90;;;;;;5002491;28;20624;-78
2023/07/22 01:06:20;;;;;;;8.30;5.93;;;13.20;99.90;;;;;;5004459;28;20417;-79
2023/07/22 01:08:46;;;;;;;10.65;7.13;;;13.10;99.90;;;;;;4987430;28;20095;-78
2023/07/22 01:11:12;;;;;;;7.68;6.15;;;13.10;99.90;;;;;;4996336;28;20050;-78
2023/07/22 01:13:38;;;;;;;9.32;7.07;;;13.10;99.90;;;;;;5006598;28;20049;-78
2023/07/22 01:16:06;;;;;;;9.60;6.40;;;13.10;99.90;;;;;;5001244;28;20393;-78
2023/07/22 01:18:33;;;;;;;9.82;7.32;;;13.10;99.90;;;;;;4992382;28;20034;-78
2023/07/22 01:20:59;;;;;;;6.90;6.20;;;13.10;99.90;;;;;;4987608;28;20026;-78
2023/07/22 01:23:24;;;;;;;7.85;5.82;;;13.10;99.90;;;;;;4978817;28;20517;-77
2023/07/22 01:25:50;;;;;;;10.20;6.53;;;13.10;99.90;;;;;;5003979;28;20029;-78
2023/07/22 01:28:16;;;;;;;8.02;6.53;;;13.10;99.90;;;;;;4997526;28;20026;-79
2023/07/22 01:30:41;;;;;;;8.85;6.60;;;13.00;99.90;;;;;;5008560;28;20029;-78
2023/07/22 01:33:07;;;;;;;8.90;7.05;;;13.00;99.90;;;;;;5002473;28;20493;-79
2023/07/22 01:35:33;;;;;;;10.25;7.28;;;13.00;99.90;;;;;;4982514;28;20442;-80
2023/07/22 01:37:58;;;;;;;11.90;6.22;;;13.00;99.90;;;;;;4994453;28;20098;-78
2023/07/22 01:40:25;;;;;;;13.68;7.57;;;13.00;99.90;;;;;;4983001;28;20085;-78
2023/07/22 01:42:50;;;;;;;9.52;7.10;;;13.00;99.90;;;;;;5003018;28;20100;-78
2023/07/22 01:45:16;;;;;;;10.27;7.65;;;13.00;99.90;;;;;;5004574;28;20715;-78
2023/07/22 01:47:41;;;;;;;10.30;8.15;;;13.00;99.90;;;;;;5002703;28;20023;-78
2023/07/22 01:50:07;;;;;;;8.35;6.65;;;13.00;99.90;;;;;;4987428;28;20409;-79
2023/07/22 01:52:33;;;;;;;8.63;6.82;;;13.00;99.90;;;;;;4984560;28;20045;-78
2023/07/22 01:54:58;;;;;;;12.05;7.05;;;13.00;99.90;;;;;;5004491;28;20507;-79
2023/07/22 01:57:24;;;;;;;8.73;7.22;;;12.90;99.90;;;;;;5003772;28;20076;-79
2023/07/22 01:59:50;;;;;;;8.00;7.03;;;12.90;99.90;;;;;;4996311;28;20664;-78
2023/07/22 02:02:15;;;;;;;11.40;7.68;;;12.90;99.90;;;;;;4993598;28;20027;-79
2023/07/22 02:04:41;;;;;;;10.60;7.35;;;12.90;99.90;;;;;;4979964;28;20512;-78
2023/07/22 02:07:06;;;;;;;11.73;7.07;;;12.90;99.90;;;;;;5006035;28;20041;-77
2023/07/22 02:09:35;;;;;;;11.23;6.93;;;12.90;99.90;;;;;;5000914;28;20362;-79
2023/07/22 02:12:01;;;;;;;10.35;7.18;;;12.80;99.90;;;;;;4987477;28;20027;-78
2023/07/22 02:14:27;;;;;;;8.88;6.65;;;12.80;99.90;;;;;;4994812;28;20223;-79
2023/07/22 02:16:52;;;;;;;10.45;7.18;;;12.80;99.90;;;;;;4988811;28;20481;-78
2023/07/22 02:19:18;;;;;;;8.98;6.95;;;12.70;99.90;;;;;;5005339;28;20026;-78
2023/07/22 02:21:43;;;;;;;9.77;6.70;;;12.70;99.90;;;;;;4993393;28;20883;-78
2023/07/22 02:24:10;;;;;;;6.93;6.22;;;12.70;99.90;;;;;;4980410;28;20117;-78
2023/07/22 02:26:36;;;;;;;11.57;7.70;;;12.70;99.90;;;;;;5011608;28;20100;-79
2023/07/22 02:29:01;;;;;;;15.15;7.97;;;12.70;99.90;;;;;;5001429;28;20057;-78
2023/07/22 02:31:27;;;;;;;13.75;7.05;;;12.60;99.90;;;;;;4987010;28;20038;-77
2023/07/22 02:33:53;;;;;;;7.65;6.00;;;12.60;99.90;;;;;;5004372;28;20022;-78
2023/07/22 02:36:18;;;;;;;8.88;5.75;;;12.60;99.90;;;;;;4986980;28;20085;-79
2023/07/22 02:38:44;;;;;;;8.82;5.78;;;12.60;99.90;;;;;;4999541;28;20064;-78
2023/07/22 02:41:10;;;;;;;11.10;6.65;;;12.60;99.90;;;;;;4989475;28;20023;-78
2023/07/22 02:43:35;;;;;;;9.57;6.18;;;12.60;99.90;;;;;;5014290;28;20022;-79
2023/07/22 02:46:03;;;;;;;7.90;5.75;;;12.50;99.90;;;;;;5008091;28;20071;-79
2023/07/22 02:48:29;;;;;;;8.35;6.57;;;12.50;99.90;;;;;;4982626;28;20146;-78
2023/07/22 02:50:55;;;;;;;10.70;6.18;;;12.50;99.90;;;;;;5005492;28;20050;-78
2023/07/22 02:53:20;;;;;;;10.45;6.43;;;12.40;99.90;;;;;;5001395;28;20026;-78
2023/07/22 02:55:46;;;;;;;9.48;5.60;;;12.40;99.90;;;;;;5011305;28;20029;-78
2023/07/22 02:58:12;;;;;;;10.88;5.95;;;12.40;99.90;;;;;;5001813;28;20030;-77
2023/07/22 03:00:38;;;;;;;15.38;6.18;;;12.40;99.90;;;;;;5010957;28;20064;-79
2023/07/22 03:03:04;;;;;;;11.05;6.15;;;12.40;99.90;;;;;;5005426;28;20034;-78
2023/07/22 03:05:32;;;;;;;9.95;6.43;;;12.40;99.90;;;;;;5004442;28;20019;-78
2023/07/22 03:07:58;;;;;;;6.80;5.18;;;12.40;99.90;;;;;;4991543;28;20034;-78
2023/07/22 03:10:25;;;;;;;10.52;6.63;;;12.40;99.90;;;;;;5004501;28;20077;-78
2023/07/22 03:12:54;;;;;;;8.88;6.35;;;12.30;99.90;;;;;;4992383;28;20018;-79
2023/07/22 03:15:20;;;;;;;9.43;6.00;;;12.30;99.90;;;;;;5003447;28;20113;-77
2023/07/22 03:17:46;;;;;;;8.75;5.53;;;12.30;99.90;;;;;;4989266;28;20018;-78
2023/07/22 03:20:14;;;;;;;7.65;6.22;;;12.30;99.90;;;;;;5005114;28;20023;-79
2023/07/22 03:22:41;;;;;;;7.95;5.63;;;12.30;99.90;;;;;;4983816;28;20023;-78
2023/07/22 03:25:09;;;;;;;7.97;6.30;;;12.20;99.90;;;;;;5001568;28;20034;-79
2023/07/22 03:27:35;;;;;;;8.40;6.57;;;12.20;99.90;;;;;;4986583;28;20413;-79
2023/07/22 03:30:10;;;;;;;8.88;5.82;;;12.20;99.90;;;;;;5005324;28;20108;-79
2023/07/22 03:32:35;;;;;;;8.60;5.43;;;12.20;99.90;;;;;;4987961;28;20035;-79
2023/07/22 03:35:02;;;;;;;7.32;5.32;;;12.20;99.90;;;;;;5000188;28;20469;-78
2023/07/22 03:37:28;;;;;;;11.38;6.30;;;12.20;99.90;;;;;;4986029;28;20034;-79
2023/07/22 03:39:54;;;;;;;7.32;4.85;;;12.20;99.90;;;;;;4982296;28;20167;-79
2023/07/22 03:42:19;;;;;;;9.43;5.65;;;12.20;99.90;;;;;;5005770;28;20034;-79
2023/07/22 03:44:45;;;;;;;8.77;5.82;;;12.20;99.90;;;;;;5004475;28;20018;-80
2023/07/22 03:47:10;;;;;;;10.10;6.00;;;12.20;99.90;;;;;;4987455;28;20026;-78
2023/07/22 03:49:36;;;;;;;10.80;5.97;;;12.20;99.90;;;;;;5003936;28;20072;-79
2023/07/22 03:52:01;;;;;;;11.38;6.07;;;12.20;99.90;;;;;;5002689;28;20041;-79
2023/07/22 03:54:27;;;;;;;11.60;6.75;;;12.20;99.90;;;;;;4983867;28;20164;-79
2023/07/22 03:56:52;;;;;;;9.35;6.22;;;12.20;99.90;;;;;;5004895;28;20029;-79
2023/07/22 03:59:18;;;;;;;11.95;6.18;;;12.20;99.90;;;;;;4987173;28;20018;-79
2023/07/22 04:01:43;;;;;;;9.35;5.70;;;12.20;99.90;;;;;;5003353;28;20560;-79
2023/07/22 04:04:09;;;;;;;11.63;7.18;;;12.20;99.90;;;;;;4986295;28;20112;-79
2023/07/22 04:06:34;;;;;;;12.13;6.75;;;12.20;99.90;;;;;;4984969;28;20022;-79
2023/07/22 04:09:01;;;;;;;9.77;6.13;;;12.20;99.90;;;;;;5004606;28;20412;-78
2023/07/22 04:11:27;;;;;;;8.88;6.18;;;12.20;99.90;;;;;;5003378;28;20065;-79
2023/07/22 04:13:53;;;;;;;9.65;5.72;;;12.20;99.90;;;;;;5002550;28;20620;-79
2023/07/22 04:16:19;;;;;;;9.48;6.38;;;12.20;99.90;;;;;;5004663;28;20072;-78
2023/07/22 04:18:44;;;;;;;7.50;6.07;;;12.20;99.90;;;;;;5002678;28;20062;-78
2023/07/22 04:21:10;;;;;;;9.05;6.43;;;12.20;99.90;;;;;;4986520;28;20098;-78
2023/07/22 04:23:35;;;;;;;9.57;6.53;;;12.20;99.90;;;;;;4999128;28;20625;-78
2023/07/22 04:26:04;;;;;;;12.52;8.05;;;12.30;99.90;;;;;;4983880;28;20013;-79
2023/07/22 04:28:30;;;;;;;13.52;7.20;;;12.30;99.90;;;;;;5003014;28;20018;-79
2023/07/22 04:30:58;;;;;;;12.90;6.35;;;12.30;99.90;;;;;;5001860;28;20038;-78
2023/07/22 04:33:24;;;;;;;9.65;6.38;;;12.30;99.90;;;;;;5004039;28;20022;-78
2023/07/22 04:35:52;;;;;;;9.55;6.55;;;12.40;99.90;;;;;;5001465;28;20044;-78
2023/07/22 04:38:18;;;;;;;10.80;6.45;;;12.40;99.90;;;;;;5003366;28;20041;-79
2023/07/22 04:40:44;;;;;;;11.93;6.68;;;12.50;99.90;;;;;;4985173;28;20171;-78
2023/07/22 04:43:09;;;;;;;10.23;6.30;;;12.50;99.90;;;;;;5003986;28;20025;-77
2023/07/22 04:45:35;;;;;;;10.52;6.65;;;12.50;99.90;;;;;;5001346;28;20066;-78
2023/07/22 04:48:02;;;;;;;14.98;8.25;;;12.40;99.90;;;;;;4985046;28;20022;-78
2023/07/22 04:50:28;;;;;;;9.18;7.03;;;12.40;99.90;;;;;;4985625;28;20064;-79
2023/07/22 04:52:55;;;;;;;8.35;6.07;;;12.50;99.90;;;;;;5003124;28;20026;-79
2023/07/22 04:55:20;;;;;;;9.30;6.18;;;12.50;99.90;;;;;;5006338;28;20036;-79
2023/07/22 04:57:46;;;;;;;10.30;6.22;;;12.50;99.90;;;;;;4985107;28;20108;-77
2023/07/22 05:00:16;;;;;;;19.80;6.40;;;12.50;99.90;;;;;;5002283;28;20018;-79
2023/07/22 05:02:43;;;;;;;9.35;6.63;;;12.50;99.90;;;;;;5001374;28;20725;-78
2023/07/22 05:05:09;;;;;;;9.27;6.40;;;12.60;99.90;;;;;;4986100;28;20034;-79
2023/07/22 05:07:35;;;;;;;12.73;7.03;;;12.70;99.90;;;;;;5004564;28;20114;-77
2023/07/22 05:10:01;;;;;;;11.27;6.93;;;12.70;99.90;;;;;;4983590;28;20018;-79
2023/07/22 05:12:26;;;;;;;9.93;6.88;;;12.80;99.90;;;;;;5000234;28;20034;-79
2023/07/22 05:14:52;;;;;;;9.63;5.80;;;12.80;99.90;;;;;;4986329;28;20022;-79
2023/07/22 05:17:17;;;;;;;14.30;6.78;;;12.90;99.90;;;;;;5010661;28;20030;-78
2023/07/22 05:19:43;;;;;;;11.25;7.57;;;12.90;99.90;;;;;;4983044;28;20027;-78
2023/07/22 05:22:09;;;;;;;11.50;6.82;;;12.90;99.90;;;;;;4973669;28;20028;-79
2023/07/22 05:24:34;;;;;;;9.07;6.38;;;13.00;99.90;;;;;;4988461;28;20397;-79
2023/07/22 05:27:00;;;;;;;9.10;6.43;;;13.00;99.90;;;;;;4999818;28;20381;-79
2023/07/22 05:29:25;;;;;;;11.43;6.97;;;13.00;99.90;;;;;;4991128;28;20030;-79
2023/07/22 05:31:51;;;;;;;10.02;6.03;;;13.00;99.90;;;;;;5004586;28;20057;-79
2023/07/22 05:34:16;;;;;;;7.72;6.03;;;13.00;99.90;;;;;;4998814;28;20030;-78
2023/07/22 05:36:42;;;;;;;10.35;6.05;;;13.10;99.90;;;;;;5005697;28;20052;-79
2023/07/22 05:39:08;;;;;;;11.70;7.10;;;13.10;99.90;;;;;;4992697;28;20101;-79
2023/07/22 05:41:34;;;;;;;8.70;6.07;;;13.20;99.90;;;;;;4988946;28;20504;-79
2023/07/22 05:43:59;;;;;;;9.60;6.00;;;13.20;99.90;;;;;;4979483;28;20527;-78
2023/07/22 05:46:25;;;;;;;8.05;5.82;;;13.20;99.90;;;;;;5001709;28;20065;-80
2023/07/22 05:48:51;;;;;;;8.55;5.63;;;13.30;99.90;;;;;;4993544;28;20026;-79
2023/07/22 05:51:17;;;;;;;8.98;5.90;;;13.40;99.90;;;;;;4988850;28;20466;-79
2023/07/22 05:53:43;;;;;;;8.68;5.63;;;13.40;99.90;;;;;;4995419;28;20097;-79
2023/07/22 05:56:08;;;;;;;6.60;4.82;;;13.50;99.90;;;;;;4988373;28;20113;-79
2023/07/22 05:58:34;;;;;;;7.70;5.72;;;13.60;99.90;;;;;;5012517;28;20053;-80
2023/07/22 06:01:00;;;;;;;7.60;5.35;;;13.60;99.90;;;;;;4987043;28;20030;-79
2023/07/22 06:03:25;;;;;;;8.63;5.68;;;13.70;99.90;;;;;;5005773;28;20061;-78
2023/07/22 06:05:51;;;;;;;8.55;5.13;;;13.80;99.90;;;;;;5009996;28;20493;-79
2023/07/22 06:08:16;;;;;;;9.02;5.63;;;13.80;99.90;;;;;;5005938;28;20019;-79
2023/07/22 06:10:42;;;;;;;8.85;4.97;;;13.90;99.90;;;;;;5009241;28;20030;-79
2023/07/22 06:13:08;;;;;;;7.75;4.22;;;13.90;99.90;;;;;;5008813;28;20040;-79
2023/07/22 06:15:33;;;;;;;8.38;4.35;;;14.00;99.90;;;;;;5007056;28;20036;-79
2023/07/22 06:18:00;;;;;;;7.45;4.80;;;14.10;99.90;;;;;;4994024;28;20026;-79
2023/07/22 06:20:26;;;;;;;7.80;4.20;;;14.20;99.90;;;;;;4991764;28;20019;-78
2023/07/22 06:22:51;;;;;;;6.88;4.40;;;14.30;99.90;;;;;;4991160;28;20028;-78
2023/07/22 06:25:17;;;;;;;6.78;4.03;;;14.40;99.90;;;;;;4993386;28;20430;-79
2023/07/22 06:27:43;;;;;;;6.25;3.90;;;14.60;99.90;;;;;;4995019;28;20136;-79
2023/07/22 06:30:09;;;;;;;4.35;3.38;;;14.70;99.90;;;;;;5007081;28;20034;-79
2023/07/22 06:32:37;;;;;;;4.90;3.17;;;14.70;99.90;;;;;;5006063;28;20065;-78
2023/07/22 06:35:03;;;;;;;9.32;3.95;;;14.90;99.90;;;;;;5012157;28;20477;-79
2023/07/22 06:37:29;;;;;;;5.55;3.28;;;15.00;99.90;;;;;;4992539;28;20023;-78
2023/07/22 06:39:55;;;;;;;5.78;3.50;;;15.10;99.90;;;;;;5013297;28;20014;-78
2023/07/22 06:42:20;;;;;;;3.63;2.83;;;15.20;99.90;;;;;;5011195;28;20100;-79
2023/07/22 06:44:46;;;;;;;4.80;2.38;;;15.30;99.90;;;;;;4992582;28;20029;-77
2023/07/22 06:47:12;;;;;;;5.47;3.15;;;15.40;99.90;;;;;;5008765;28;20022;-77
2023/07/22 06:49:37;;;;;;;4.20;2.42;;;15.50;99.90;;;;;;4991517;28;20509;-78
2023/07/22 06:52:03;;;;;;;6.72;2.28;;;15.70;99.90;;;;;;5010346;28;20570;-77
2023/07/22 06:54:29;;;;;;;4.05;2.70;;;15.70;99.90;;;;;;5007529;28;20026;-77
2023/07/22 06:56:55;;;;;;;4.43;2.50;;;15.80;99.90;;;;;;5012089;28;20018;-78
2023/07/22 06:59:20;;;;;;;3.35;2.50;;;15.80;99.90;;;;;;5005172;28;20044;-77
2023/07/22 07:01:46;;;;;;;3.63;2.65;;;16.00;99.90;;;;;;5007715;28;20056;-77
2023/07/22 07:04:12;;;;;;;7.95;2.90;;;16.10;99.90;;;;;;4989167;28;20485;-79
2023/07/22 07:06:38;;;;;;;6.10;2.70;;;16.10;99.90;;;;;;4990265;28;20390;-78
2023/07/22 07:09:05;;;;;;;5.47;3.08;;;16.10;99.90;;;;;;4990915;28;20022;-77
2023/07/22 07:11:31;;;;;;;4.43;2.85;;;16.20;99.90;;;;;;5005239;28;20054;-78
2023/07/22 07:13:57;;;;;;;3.05;2.40;;;16.20;99.90;;;;;;4988622;28;20080;-79
2023/07/22 07:16:25;;;;;;;3.38;2.08;;;16.10;99.90;;;;;;5004910;28;20026;-77
2023/07/22 07:18:51;;;;;;;3.28;2.17;;;16.10;99.90;;;;;;5004105;28;20032;-76
2023/07/22 07:21:17;;;;;;;2.88;2.17;;;16.30;99.90;;;;;;4987487;28;20184;-77
2023/07/22 07:23:43;;;;;;;2.67;1.70;;;16.50;99.90;;;;;;5003961;28;20485;-76
2023/07/22 07:26:09;;;;;;;2.28;1.25;;;16.60;99.90;;;;;;5006974;28;20033;-79
2023/07/22 07:28:34;;;;;;;2.13;1.50;;;16.70;99.90;;;;;;5003918;28;20030;-77
2023/07/22 07:31:00;;;;;;;3.25;2.15;;;16.60;99.90;;;;;;5003056;28;20428;-77
2023/07/22 07:33:25;;;;;;;2.22;1.77;;;16.70;99.90;;;;;;5004197;28;20076;-77
2023/07/22 07:35:51;;;;;;;1.77;1.40;;;16.80;99.90;;;;;;5002639;28;20079;-78
2023/07/22 07:38:17;;;;;;;2.72;1.63;;;17.00;99.90;;;;;;5004621;28;20114;-77
2023/07/22 07:40:42;;;;;;;3.58;2.10;;;17.20;99.90;;;;;;4984948;28;20693;-77
2023/07/22 07:43:08;;;;;;;2.65;1.40;;;17.40;99.90;;;;;;5005177;28;20014;-76
2023/07/22 07:45:39;;;;;;;2.42;1.77;;;17.50;99.90;;;;;;4988848;28;20060;-76
2023/07/22 07:48:05;;;;;;;5.38;2.25;;;17.70;99.90;;;;;;5001301;28;20489;-78
2023/07/22 07:50:32;;;;;;;1.98;1.00;;;17.70;99.90;;;;;;4987167;28;20523;-77
2023/07/22 07:52:57;;;;;;;1.35;1.23;;;17.80;99.90;;;;;;4997750;28;20453;-78
2023/07/22 07:55:23;;;;;;;3.70;1.10;;;17.80;99.90;;;;;;4987345;28;20040;-77
2023/07/22 07:57:48;;;;;;;1.90;1.30;;;17.80;99.90;;;;;;5004942;28;20041;-76
2023/07/22 08:00:14;;;;;;;2.72;1.30;;;17.80;99.90;;;;;;5003850;28;20022;-77
2023/07/22 08:02:40;;;;;;;2.72;1.40;;;17.70;99.90;;;;;;5002547;28;20025;-77
2023/07/22 08:05:05;;;;;;;2.05;1.30;;;17.60;99.90;;;;;;5004734;28;20370;-77
2023/07/22 08:07:31;;;;;;;1.75;1.10;;;17.60;99.90;;;;;;5001405;28;20389;-76
2023/07/22 08:09:58;;;;;;;2.80;1.20;;;17.50;99.90;;;;;;5002050;28;20014;-77
2023/07/22 08:12:23;;;;;;;2.97;1.25;;;17.50;99.90;;;;;;5001523;28;20042;-76
2023/07/22 08:14:49;;;;;;;2.97;1.10;;;17.60;99.90;;;;;;5007025;28;20092;-77
2023/07/22 08:17:14;;;;;;;3.13;1.10;;;17.60;99.90;;;;;;4984722;28;20081;-77
2023/07/22 08:19:40;;;;;;;1.13;1.00;;;17.60;99.90;;;;;;5008082;28;20022;-77
2023/07/22 08:22:06;;;;;;;2.05;0.98;;;17.50;99.90;;;;;;5001096;28;20030;-77
2023/07/22 08:24:32;;;;;;;0.90;0.63;;;17.70;99.90;;;;;;5008302;28;20049;-78
2023/07/22 08:26:58;;;;;;;1.00;0.90;;;17.80;99.90;;;;;;4983411;28;20023;-77
2023/07/22 08:29:24;;;;;;;2.22;0.73;;;18.00;99.90;;;;;;5001467;28;20029;-78
2023/07/22 08:31:49;;;;;;;1.67;0.90;;;18.20;99.90;;;;;;5006910;28;20429;-77
2023/07/22 08:34:15;;;;;;;0.95;0.70;;;18.30;99.90;;;;;;5000588;28;20030;-77
2023/07/22 08:36:41;;;;;;;2.35;1.33;;;18.20;99.90;;;;;;5008075;28;20053;-77
2023/07/22 08:39:07;;;;;;;3.20;0.77;;;18.20;99.90;;;;;;4977138;28;20037;-78
2023/07/22 08:41:33;;;;;;;2.80;1.30;;;18.30;99.90;;;;;;4992326;28;20025;-80
2023/07/22 08:44:00;;;;;;;3.13;0.80;;;18.30;99.90;;;;;;5000908;28;20018;-77
2023/07/22 08:46:31;;;;;;;1.98;0.80;;;18.50;99.90;;;;;;4984411;28;20033;-76
2023/07/22 08:49:00;;;;;;;2.35;1.30;;;18.50;99.90;;;;;;5006286;28;20050;-76
2023/07/22 08:51:28;;;;;;;4.35;1.20;;;18.40;99.90;;;;;;4984416;28;20030;-77
2023/07/22 08:53:56;;;;;;;1.92;0.82;;;18.40;99.90;;;;;;5006615;28;20018;-77
2023/07/22 08:56:26;;;;;;;1.55;0.85;;;18.30;99.90;;;;;;5001182;28;20375;-79
2023/07/22 08:58:52;;;;;;;2.20;0.98;;;18.30;99.90;;;;;;4974220;28;20021;-78
2023/07/22 09:01:18;;;;;;;0.80;0.50;;;18.40;99.90;;;;;;5001965;28;20042;-77
2023/07/22 09:03:47;;;;;;;2.70;0.90;;;18.40;99.90;;;;;;5003912;28;20103;-78
2023/07/22 09:06:13;;;;;;;0.90;0.80;;;18.50;99.90;;;;;;5003834;28;20023;-77
2023/07/22 09:08:39;;;;;;;1.50;0.80;;;18.50;99.90;;;;;;5002854;28;20117;-76
2023/07/22 09:11:05;;;;;;;3.13;1.70;;;18.50;99.90;;;;;;5003799;28;20053;-77
2023/07/22 09:13:32;;;;;;;1.60;1.42;;;18.60;99.90;;;;;;5000801;28;20669;-78
2023/07/22 09:15:59;;;;;;;2.55;0.77;;;18.80;99.90;;;;;;5003579;28;20049;-77
2023/07/22 09:18:25;;;;;;;0.77;0.77;;;18.80;99.90;;;;;;4985035;28;20030;-77
2023/07/22 09:20:51;;;;;;;1.55;1.02;;;18.80;99.90;;;;;;5003818;28;20014;-77
2023/07/22 09:23:16;;;;;;;1.10;0.70;;;18.90;99.90;;;;;;5003223;28;20022;-77
2023/07/22 09:25:43;;;;;;;1.50;0.93;;;19.00;99.90;;;;;;5002585;28;20045;-78
2023/07/22 09:28:09;;;;;;;2.30;0.77;;;19.10;99.90;;;;;;4982860;28;20026;-78
2023/07/22 09:30:36;;;;;;;1.27;0.80;;;19.20;99.90;;;;;;4999704;28;20517;-78
2023/07/22 09:33:03;;;;;;;0.98;0.80;;;19.10;99.90;;;;;;5002940;28;20044;-77
2023/07/22 09:35:45;;;;;;;2.22;1.05;;;19.20;99.90;;;;;;4982905;28;20029;-78
2023/07/22 09:38:11;;;;;;;2.55;0.75;;;19.30;99.90;;;;;;5002470;28;20029;-79
2023/07/22 09:40:40;;;;;;;1.10;0.70;;;19.50;99.90;;;;;;4983889;28;20018;-77
2023/07/22 09:43:08;;;;;;;1.35;0.73;;;19.40;99.90;;;;;;5002279;28;20026;-77
2023/07/22 09:45:35;;;;;;;0.80;0.70;;;19.30;99.90;;;;;;5000738;28;20077;-78
2023/07/22 09:48:00;;;;;;;2.60;1.20;;;19.30;99.90;;;;;;4983740;28;20543;-77
2023/07/22 09:50:27;;;;;;;1.33;0.73;;;19.30;99.90;;;;;;5000483;28;20026;-77
2023/07/22 09:52:54;;;;;;;1.45;1.00;;;19.40;99.90;;;;;;5000553;28;20033;-77
2023/07/22 09:55:25;;;;;;;1.25;0.85;;;19.50;99.90;;;;;;4983832;28;20091;-77
2023/07/22 09:57:54;;;;;;;0.75;0.60;;;19.60;99.90;;;;;;4981888;28;20077;-77
2023/07/22 10:00:21;;;;;;;0.75;0.75;;;19.70;99.90;;;;;;4999579;28;20600;-77
2023/07/22 10:02:51;;;;;;;0.90;0.88;;;19.80;99.90;;;;;;4999939;28;20034;-78
2023/07/22 10:05:19;;;;;;;2.80;0.70;;;19.80;99.90;;;;;;4986123;28;20077;-79
2023/07/22 10:07:50;;;;;;;1.95;0.80;;;19.90;99.90;;;;;;4998674;28;20417;-78
2023/07/22 10:10:18;;;;;;;1.55;1.20;;;19.90;99.90;;;;;;4981995;28;20058;-77
2023/07/22 10:12:45;;;;;;;1.00;0.60;;;19.90;99.90;;;;;;5001316;28;20025;-77
2023/07/22 10:15:13;;;;;;;1.13;0.75;;;19.80;99.90;;;;;;4982790;28;20026;-77
2023/07/22 10:17:43;;;;;;;3.22;0.80;;;19.80;99.90;;;;;;5000076;28;20041;-79
2023/07/22 10:20:14;;;;;;;0.82;0.57;;;19.60;99.90;;;;;;5002326;28;20058;-77
2023/07/22 10:22:44;;;;;;;0.82;0.80;;;19.50;99.90;;;;;;4999804;28;20512;-78
2023/07/22 10:25:20;;;;;;;1.25;0.77;;;19.50;99.90;;;;;;5002181;28;20023;-77
2023/07/22 10:27:48;;;;;;;1.65;0.73;;;19.40;99.90;;;;;;5001364;28;20037;-78
2023/07/22 10:30:15;;;;;;;2.33;1.08;;;19.40;99.90;;;;;;4999661;28;20049;-78
2023/07/22 10:32:46;;;;;;;0.85;0.80;;;19.50;99.90;;;;;;4984676;28;20027;-78
2023/07/22 10:35:17;;;;;;;1.02;0.75;;;19.50;99.90;;;;;;5005073;28;20057;-77
2023/07/22 10:37:45;;;;;;;1.30;0.80;;;19.60;99.90;;;;;;4986579;28;20057;-77
2023/07/22 10:40:29;;;;;;;1.65;0.85;;;19.70;99.90;;;;;;4981102;28;20023;-78
2023/07/22 10:43:06;;;;;;;3.78;0.90;;;19.70;99.90;;;;;;4985453;28;20056;-77
2023/07/22 10:45:40;;;;;;;2.03;1.00;;;19.80;99.90;;;;;;5003285;28;20505;-78
2023/07/22 10:48:07;;;;;;;1.30;0.90;;;19.80;99.90;;;;;;5004921;28;20037;-77
2023/07/22 10:50:51;;;;;;;1.50;1.10;;;19.90;99.90;;;;;;5003350;28;20022;-77
2023/07/22 10:53:19;;;;;;;1.70;0.90;;;20.00;99.90;;;;;;5007411;28;20022;-77
2023/07/22 10:56:04;;;;;;;3.47;1.15;;;20.00;99.90;;;;;;4983771;28;20118;-77
2023/07/22 10:58:46;;;;;;;2.45;0.90;;;20.10;99.90;;;;;;5008342;28;20045;-76
2023/07/22 11:01:24;;;;;;;3.55;0.90;;;20.20;99.90;;;;;;4983868;28;20409;-77
2023/07/22 11:04:12;;;;;;;3.28;1.27;;;19.90;99.90;;;;;;4987112;28;20156;-77
2023/07/22 11:06:39;;;;;;;2.00;1.08;;;19.60;99.90;;;;;;4986561;28;20019;-78
2023/07/22 11:09:05;;;;;;;1.10;0.98;;;19.50;99.90;;;;;;5005244;28;20032;-78
2023/07/22 11:11:39;;;;;;;1.17;1.00;;;19.40;99.90;;;;;;5002943;28;20102;-78
2023/07/22 11:14:14;;;;;;;0.85;0.70;;;19.50;99.90;;;;;;5003941;28;20088;-79
2023/07/22 11:16:42;;;;;;;2.42;1.23;;;19.50;99.90;;;;;;5005475;28;20036;-77
2023/07/22 11:19:08;;;;;;;1.10;1.00;;;19.50;99.90;;;;;;4987990;28;20034;-79
2023/07/22 11:21:33;;;;;;;1.58;1.48;;;19.60;99.90;;;;;;5002234;28;20033;-78
2023/07/22 11:23:59;;;;;;;1.40;1.30;;;19.70;99.90;;;;;;4986325;28;20030;-77
2023/07/22 11:26:24;;;;;;;1.88;1.13;;;19.70;99.90;;;;;;5003636;28;20465;-78
2023/07/22 11:28:52;;;;;;;1.52;1.30;;;19.70;99.90;;;;;;4995786;28;20030;-79
2023/07/22 11:31:18;;;;;;;1.90;1.50;;;19.70;99.90;;;;;;4987740;28;20085;-78
2023/07/22 11:33:46;;;;;;;2.22;1.30;;;19.60;99.90;;;;;;5000961;28;20501;-77
2023/07/22 11:36:13;;;;;;;3.22;1.60;;;19.70;99.90;;;;;;5005533;28;20076;-77
2023/07/22 11:38:38;;;;;;;1.92;1.50;;;19.70;99.80;;;;;;4984859;28;20034;-77
2023/07/22 11:41:04;;;;;;;1.90;1.60;;;19.80;99.90;;;;;;4987822;28;20026;-78
2023/07/22 11:43:30;;;;;;;1.88;1.35;;;19.80;99.90;;;;;;5003060;28;20030;-77
2023/07/22 11:45:55;;;;;;;2.95;1.50;;;19.90;99.90;;;;;;4982463;28;20027;-77
2023/07/22 11:48:21;;;;;;;1.50;1.30;;;20.10;99.90;;;;;;4988718;28;20034;-78
2023/07/22 11:50:47;;;;;;;2.80;1.73;;;20.20;99.90;;;;;;5000922;28;20108;-77
2023/07/22 11:53:13;;;;;;;3.22;1.75;;;20.30;99.90;;;;;;5005981;28;20026;-78
2023/07/22 11:55:38;;;;;;;2.33;1.73;;;20.40;99.90;;;;;;5000422;28;20041;-78
2023/07/22 11:58:04;;;;;;;2.80;1.90;;;20.40;98.80;;;;;;5005404;28;20022;-77
2023/07/22 12:00:30;;;;;;;2.65;2.05;;;20.50;99.90;;;;;;4984530;28;20037;-78
2023/07/22 12:02:57;;;;;;;4.82;2.47;;;20.70;99.90;;;;;;4985377;28;20057;-77
2023/07/22 12:05:22;;;;;;;3.22;2.30;;;20.70;99.90;;;;;;4988162;28;20026;-78
2023/07/22 12:07:48;;;;;;;3.60;2.55;;;20.70;98.80;;;;;;4998304;28;20027;-78
2023/07/22 12:10:15;;;;;;;4.20;3.00;;;20.50;99.30;;;;;;5001528;28;20102;-77
2023/07/22 12:12:46;;;;;;;3.28;2.55;;;20.50;99.60;;;;;;5002436;28;20033;-78
2023/07/22 12:15:15;;;;;;;3.05;2.60;;;20.30;99.90;;;;;;4984610;28;20023;-77
2023/07/22 12:17:59;;;;;;;3.00;2.70;;;20.20;99.90;;;;;;5002732;28;20667;-77
2023/07/22 12:20:29;;;;;;;5.30;2.83;;;20.00;99.90;;;;;;5001701;28;20018;-77
2023/07/22 12:22:56;;;;;;;9.05;2.63;;;19.90;99.90;;;;;;4984997;28;20030;-77
2023/07/22 12:25:22;;;;;;;2.75;2.45;;;19.70;99.90;;;;;;5003605;28;20026;-76
2023/07/22 12:27:47;;;;;;;4.80;2.50;;;19.50;99.90;;;;;;5003623;28;20562;-76
2023/07/22 12:30:13;;;;;;;2.92;2.53;;;19.40;99.90;;;;;;5001681;28;20458;-77
2023/07/22 12:32:39;;;;;;;4.38;3.10;;;19.40;99.90;;;;;;4983762;28;20460;-77
2023/07/22 12:35:05;;;;;;;3.30;2.17;;;19.30;99.90;;;;;;4985166;28;20021;-77
2023/07/22 12:37:31;;;;;;;2.65;2.42;;;19.20;99.90;;;;;;5005518;28;20030;-78
2023/07/22 12:39:57;;;;;;;3.13;2.40;;;19.20;99.90;;;;;;5002840;28;20022;-77
2023/07/22 12:42:22;;;;;;;4.88;3.20;;;18.90;99.90;;;;;;5002340;28;20030;-77